createdAt,value
2023-02-15T00:01:30.699Z,567
2023-02-15T00:02:30.382Z,752
2023-02-15T00:03:30.400Z,729
2023-02-15T00:04:30.362Z,665
2023-02-15T00:06:30.654Z,545
2023-02-15T00:07:30.394Z,679
2023-02-15T00:08:30.398Z,698
2023-02-15T00:09:30.392Z,528
2023-02-15T00:11:30.653Z,743
2023-02-15T00:12:30.375Z,588
2023-02-15T00:13:30.399Z,581
2023-02-15T00:14:30.386Z,785
2023-02-15T00:16:30.696Z,785
2023-02-15T00:17:30.370Z,656
2023-02-15T00:18:30.369Z,505
2023-02-15T00:19:30.394Z,659
2023-02-15T00:21:30.688Z,488
2023-02-15T00:22:30.387Z,731
2023-02-15T00:23:30.403Z,551
2023-02-15T00:24:30.388Z,704
2023-02-15T00:26:30.672Z,709
2023-02-15T00:27:30.378Z,672
2023-02-15T00:28:30.408Z,601
2023-02-15T00:29:30.371Z,434
2023-02-15T00:31:30.737Z,650
2023-02-15T00:32:30.408Z,636
2023-02-15T00:33:30.392Z,627
2023-02-15T00:34:30.400Z,594
2023-02-15T00:36:30.700Z,636
2023-02-15T00:37:30.390Z,606
2023-02-15T00:38:30.366Z,587
2023-02-15T00:39:30.512Z,620
2023-02-15T00:41:30.672Z,459
2023-02-15T00:42:30.396Z,637
2023-02-15T00:43:30.521Z,506
2023-02-15T00:44:30.404Z,637
2023-02-15T00:46:30.701Z,587
2023-02-15T00:47:30.526Z,614
2023-02-15T00:48:30.484Z,437
2023-02-15T00:49:30.417Z,448
2023-02-15T00:51:30.679Z,603
2023-02-15T00:52:30.404Z,406
2023-02-15T00:53:30.384Z,425
2023-02-15T00:54:30.407Z,436
2023-02-15T00:56:30.705Z,419
2023-02-15T00:57:30.403Z,435
2023-02-15T00:58:30.375Z,406
2023-02-15T00:59:30.524Z,592
2023-02-15T01:01:30.765Z,613
2023-02-15T01:02:30.401Z,486
2023-02-15T01:03:30.402Z,507
2023-02-15T01:04:30.432Z,496
2023-02-15T01:06:30.695Z,428
2023-02-15T01:07:30.433Z,444
2023-02-15T01:08:30.421Z,459
2023-02-15T01:09:30.399Z,444
2023-02-15T01:11:30.718Z,580
2023-02-15T01:12:30.516Z,553
2023-02-15T01:13:30.421Z,592
2023-02-15T01:14:30.377Z,486
2023-02-15T01:16:30.707Z,654
2023-02-15T01:17:30.555Z,597
2023-02-15T01:18:30.428Z,631
2023-02-15T01:19:30.401Z,480
2023-02-15T01:21:30.689Z,625
2023-02-15T01:22:30.559Z,572
2023-02-15T01:23:30.421Z,639
2023-02-15T01:24:30.543Z,428
2023-02-15T01:26:30.721Z,600
2023-02-15T01:27:30.431Z,567
2023-02-15T01:28:30.392Z,567
2023-02-15T01:29:30.547Z,566
2023-02-15T01:31:30.828Z,613
2023-02-15T01:32:30.436Z,425
2023-02-15T01:33:30.422Z,538
2023-02-15T01:34:30.435Z,570
2023-02-15T01:36:30.688Z,573
2023-02-15T01:37:30.426Z,537
2023-02-15T01:38:30.417Z,411
2023-02-15T01:39:30.420Z,535
2023-02-15T01:41:30.722Z,407
2023-02-15T01:42:30.398Z,587
2023-02-15T01:43:30.523Z,448
2023-02-15T01:44:30.552Z,530
2023-02-15T01:46:30.737Z,448
2023-02-15T01:47:30.447Z,444
2023-02-15T01:48:30.504Z,444
2023-02-15T01:49:30.405Z,631
2023-02-15T01:51:30.689Z,491
2023-02-15T01:52:30.509Z,614
2023-02-15T01:53:30.443Z,444
2023-02-15T01:54:30.401Z,573
2023-02-15T01:56:30.693Z,444
2023-02-15T01:57:30.535Z,452
2023-02-15T01:58:30.439Z,452
2023-02-15T01:59:30.411Z,452
2023-02-15T02:01:30.805Z,452
2023-02-15T02:02:30.443Z,452
2023-02-15T02:03:30.424Z,570
2023-02-15T02:04:30.405Z,452
2023-02-15T02:06:30.721Z,452
2023-02-15T02:07:30.410Z,535
2023-02-15T02:08:30.441Z,498
2023-02-15T02:09:30.436Z,498
2023-02-15T02:11:30.731Z,498
2023-02-15T02:12:30.467Z,573
2023-02-15T02:13:30.566Z,597
2023-02-15T02:14:30.575Z,452
2023-02-15T02:16:30.700Z,452
2023-02-15T02:17:30.402Z,444
2023-02-15T02:18:30.439Z,482
2023-02-15T02:19:30.435Z,444
2023-02-15T02:21:30.741Z,567
2023-02-15T02:22:30.438Z,584
2023-02-15T02:23:30.426Z,466
2023-02-15T02:24:30.411Z,611
2023-02-15T02:26:30.705Z,466
2023-02-15T02:27:30.449Z,692
2023-02-15T02:28:30.409Z,678
2023-02-15T02:29:30.453Z,611
2023-02-15T02:31:30.892Z,466
2023-02-15T02:32:30.429Z,427
2023-02-15T02:33:30.461Z,486
2023-02-15T02:34:30.476Z,427
2023-02-15T02:35:30.419Z,427
2023-02-15T02:36:30.702Z,427
2023-02-15T02:37:30.558Z,437
2023-02-15T02:38:30.560Z,437
2023-02-15T02:39:30.442Z,437
2023-02-15T02:40:30.561Z,437
2023-02-15T02:41:30.715Z,462
2023-02-15T02:42:30.565Z,553
2023-02-15T02:43:30.416Z,541
2023-02-15T02:44:30.434Z,548
2023-02-15T02:45:30.569Z,471
2023-02-15T02:46:30.765Z,592
2023-02-15T02:47:30.535Z,570
2023-02-15T02:48:30.416Z,553
2023-02-15T02:49:30.457Z,552
2023-02-15T02:50:30.422Z,444
2023-02-15T02:51:30.708Z,444
2023-02-15T02:52:30.449Z,556
2023-02-15T02:53:30.575Z,580
2023-02-15T02:54:30.571Z,564
2023-02-15T02:55:30.571Z,452
2023-02-15T02:56:30.713Z,473
2023-02-15T02:57:30.555Z,452
2023-02-15T02:58:30.602Z,587
2023-02-15T02:59:30.423Z,533
2023-02-15T03:00:30.460Z,550
2023-02-15T03:01:30.764Z,452
2023-02-15T03:02:30.488Z,578
2023-02-15T03:03:30.561Z,428
2023-02-15T03:04:30.444Z,419
2023-02-15T03:05:30.574Z,530
2023-02-15T03:06:30.713Z,419
2023-02-15T03:07:30.572Z,452
2023-02-15T03:08:30.433Z,452
2023-02-15T03:09:30.442Z,533
2023-02-15T03:10:30.433Z,452
2023-02-15T03:11:30.724Z,452
2023-02-15T03:12:30.570Z,452
2023-02-15T03:13:30.456Z,526
2023-02-15T03:14:30.449Z,506
2023-02-15T03:15:30.443Z,506
2023-02-15T03:16:30.778Z,452
2023-02-15T03:17:30.462Z,518
2023-02-15T03:18:30.441Z,459
2023-02-15T03:19:30.563Z,459
2023-02-15T03:20:30.473Z,459
2023-02-15T03:21:30.733Z,459
2023-02-15T03:22:30.466Z,482
2023-02-15T03:23:30.436Z,530
2023-02-15T03:24:30.445Z,550
2023-02-15T03:25:30.473Z,498
2023-02-15T03:26:30.753Z,482
2023-02-15T03:27:30.602Z,444
2023-02-15T03:28:30.589Z,487
2023-02-15T03:29:30.447Z,444
2023-02-15T03:30:30.488Z,444
2023-02-15T03:31:30.810Z,444
2023-02-15T03:32:30.590Z,522
2023-02-15T03:33:30.591Z,452
2023-02-15T03:34:30.440Z,452
2023-02-15T03:35:30.473Z,452
2023-02-15T03:36:30.742Z,522
2023-02-15T03:37:30.594Z,490
2023-02-15T03:38:30.570Z,566
2023-02-15T03:39:30.496Z,581
2023-02-15T03:40:30.477Z,565
2023-02-15T03:41:30.777Z,552
2023-02-15T03:42:30.467Z,444
2023-02-15T03:43:30.479Z,444
2023-02-15T03:44:30.442Z,444
2023-02-15T03:45:30.475Z,444
2023-02-15T03:46:30.777Z,502
2023-02-15T03:47:30.478Z,459
2023-02-15T03:48:30.573Z,459
2023-02-15T03:49:30.446Z,459
2023-02-15T03:50:30.585Z,497
2023-02-15T03:51:30.745Z,530
2023-02-15T03:52:30.563Z,491
2023-02-15T03:53:30.483Z,492
2023-02-15T03:54:30.443Z,444
2023-02-15T03:55:30.485Z,503
2023-02-15T03:56:30.746Z,444
2023-02-15T03:57:30.461Z,444
2023-02-15T03:58:30.472Z,487
2023-02-15T03:59:30.472Z,487
2023-02-15T04:00:30.588Z,444
2023-02-15T04:01:30.842Z,444
2023-02-15T04:02:30.464Z,497
2023-02-15T04:03:30.472Z,459
2023-02-15T04:04:30.581Z,459
2023-02-15T04:05:30.486Z,459
2023-02-15T04:06:30.751Z,459
2023-02-15T04:07:30.479Z,482
2023-02-15T04:08:30.450Z,538
2023-02-15T04:09:30.482Z,482
2023-02-15T04:10:30.505Z,482
2023-02-15T04:11:30.758Z,482
2023-02-15T04:12:30.480Z,452
2023-02-15T04:13:30.462Z,501
2023-02-15T04:14:30.587Z,477
2023-02-15T04:15:30.594Z,473
2023-02-15T04:16:31.308Z,533
2023-02-15T04:17:30.489Z,444
2023-02-15T04:18:30.485Z,497
2023-02-15T04:19:30.481Z,444
2023-02-15T04:20:30.458Z,444
2023-02-15T04:21:30.777Z,444
2023-02-15T04:22:30.488Z,437
2023-02-15T04:23:30.476Z,437
2023-02-15T04:24:30.583Z,437
2023-02-15T04:25:30.467Z,485
2023-02-15T04:26:30.749Z,437
2023-02-15T04:27:30.450Z,444
2023-02-15T04:28:30.495Z,444
2023-02-15T04:29:30.585Z,508
2023-02-15T04:30:30.685Z,477
2023-02-15T04:31:30.829Z,444
2023-02-15T04:32:30.580Z,531
2023-02-15T04:33:30.593Z,453
2023-02-15T04:34:30.498Z,503
2023-02-15T04:35:30.584Z,452
2023-02-15T04:36:30.749Z,452
2023-02-15T04:37:30.580Z,487
2023-02-15T04:38:30.633Z,444
2023-02-15T04:39:30.485Z,444
2023-02-15T04:40:30.590Z,477
2023-02-15T04:41:30.745Z,444
2023-02-15T04:42:30.486Z,450
2023-02-15T04:43:30.488Z,444
2023-02-15T04:44:30.493Z,444
2023-02-15T04:45:30.566Z,496
2023-02-15T04:46:30.786Z,444
2023-02-15T04:47:30.470Z,482
2023-02-15T04:48:30.606Z,482
2023-02-15T04:49:30.503Z,482
2023-02-15T04:50:30.591Z,482
2023-02-15T04:51:30.794Z,518
2023-02-15T04:52:30.465Z,444
2023-02-15T04:53:30.471Z,481
2023-02-15T04:54:30.474Z,444
2023-02-15T04:55:30.466Z,466
2023-02-15T04:56:30.790Z,444
2023-02-15T04:57:30.594Z,492
2023-02-15T04:58:30.596Z,459
2023-02-15T04:59:30.619Z,540
2023-02-15T05:00:30.483Z,498
2023-02-15T05:01:30.789Z,525
2023-02-15T05:02:30.484Z,490
2023-02-15T05:03:30.490Z,490
2023-02-15T05:04:30.530Z,490
2023-02-15T05:05:30.498Z,490
2023-02-15T05:06:30.785Z,490
2023-02-15T05:07:30.500Z,529
2023-02-15T05:08:30.483Z,459
2023-02-15T05:09:30.602Z,497
2023-02-15T05:10:30.491Z,459
2023-02-15T05:11:30.769Z,535
2023-02-15T05:12:30.501Z,542
2023-02-15T05:13:30.511Z,482
2023-02-15T05:14:30.485Z,548
2023-02-15T05:15:30.495Z,547
2023-02-15T05:16:30.863Z,547
2023-02-15T05:17:30.496Z,547
2023-02-15T05:18:30.471Z,550
2023-02-15T05:19:30.605Z,584
2023-02-15T05:20:30.506Z,550
2023-02-15T05:21:30.802Z,577
2023-02-15T05:22:30.497Z,490
2023-02-15T05:23:30.485Z,490
2023-02-15T05:24:30.480Z,598
2023-02-15T05:25:30.556Z,570
2023-02-15T05:26:30.781Z,581
2023-02-15T05:27:30.617Z,543
2023-02-15T05:28:30.514Z,490
2023-02-15T05:29:30.514Z,490
2023-02-15T05:30:30.724Z,490
2023-02-15T05:31:30.968Z,490
2023-02-15T05:32:30.611Z,498
2023-02-15T05:33:30.506Z,498
2023-02-15T05:34:30.513Z,550
2023-02-15T05:35:30.539Z,498
2023-02-15T05:36:30.739Z,498
2023-02-15T05:37:30.545Z,550
2023-02-15T05:38:30.614Z,498
2023-02-15T05:39:30.517Z,498
2023-02-15T05:40:30.492Z,498
2023-02-15T05:41:30.811Z,498
2023-02-15T05:42:30.508Z,491
2023-02-15T05:43:30.521Z,490
2023-02-15T05:44:30.497Z,490
2023-02-15T05:45:30.609Z,533
2023-02-15T05:46:30.846Z,490
2023-02-15T05:47:30.514Z,522
2023-02-15T05:48:30.522Z,552
2023-02-15T05:49:30.529Z,533
2023-02-15T05:50:30.509Z,490
2023-02-15T05:51:30.818Z,518
2023-02-15T05:52:30.639Z,490
2023-02-15T05:53:30.493Z,490
2023-02-15T05:54:30.541Z,490
2023-02-15T05:56:30.811Z,490
2023-02-15T05:57:30.531Z,528
2023-02-15T05:58:30.502Z,490
2023-02-15T05:59:30.511Z,490
2023-02-15T06:01:30.793Z,490
2023-02-15T06:02:30.592Z,551
2023-02-15T06:03:30.550Z,543
2023-02-15T06:04:30.618Z,490
2023-02-15T06:05:30.529Z,547
2023-02-15T06:06:30.792Z,520
2023-02-15T06:07:30.533Z,520
2023-02-15T06:08:30.646Z,495
2023-02-15T06:09:30.519Z,530
2023-02-15T06:10:30.507Z,495
2023-02-15T06:11:30.807Z,495
2023-02-15T06:12:30.665Z,505
2023-02-15T06:13:30.661Z,482
2023-02-15T06:14:30.503Z,463
2023-02-15T06:15:30.628Z,481
2023-02-15T06:16:30.798Z,515
2023-02-15T06:17:30.538Z,505
2023-02-15T06:18:30.533Z,540
2023-02-15T06:19:30.544Z,495
2023-02-15T06:20:30.546Z,539
2023-02-15T06:21:30.824Z,495
2023-02-15T06:22:30.513Z,515
2023-02-15T06:23:30.531Z,495
2023-02-15T06:24:30.528Z,561
2023-02-15T06:26:30.815Z,495
2023-02-15T06:27:30.644Z,446
2023-02-15T06:28:30.515Z,523
2023-02-15T06:29:30.534Z,446
2023-02-15T06:30:30.726Z,446
2023-02-15T06:31:30.871Z,446
2023-02-15T06:32:30.509Z,462
2023-02-15T06:33:30.511Z,462
2023-02-15T06:34:30.540Z,462
2023-02-15T06:35:30.523Z,529
2023-02-15T06:36:30.817Z,497
2023-02-15T06:37:30.536Z,530
2023-02-15T06:38:30.654Z,462
2023-02-15T06:39:30.515Z,462
2023-02-15T06:40:30.556Z,553
2023-02-15T06:41:30.814Z,508
2023-02-15T06:42:30.548Z,478
2023-02-15T06:43:30.530Z,518
2023-02-15T06:44:30.526Z,495
2023-02-15T06:45:30.640Z,516
2023-02-15T06:47:02.616Z,409
2023-02-15T06:48:02.601Z,400
2023-02-15T06:49:02.638Z,400
2023-02-15T06:51:02.813Z,406
2023-02-15T06:52:02.569Z,427
2023-02-15T06:53:02.561Z,424
2023-02-15T06:54:02.642Z,400
2023-02-15T06:56:03.076Z,400
2023-02-15T06:57:02.568Z,401
2023-02-15T06:58:02.632Z,410
2023-02-15T06:59:02.631Z,400
2023-02-15T07:01:02.768Z,455
2023-02-15T07:02:02.610Z,411
2023-02-15T07:03:02.617Z,401
2023-02-15T07:04:02.614Z,401
2023-02-15T07:06:03.095Z,401
2023-02-15T07:07:02.570Z,409
2023-02-15T07:08:02.581Z,438
2023-02-15T07:09:02.640Z,423
2023-02-15T07:11:02.750Z,409
2023-02-15T07:12:02.587Z,400
2023-02-15T07:13:02.618Z,426
2023-02-15T07:14:02.575Z,414
2023-02-15T07:16:02.957Z,418
2023-02-15T07:17:02.633Z,406
2023-02-15T07:18:02.620Z,424
2023-02-15T07:19:02.627Z,406
2023-02-15T07:21:02.744Z,406
2023-02-15T07:22:02.611Z,435
2023-02-15T07:23:02.612Z,435
2023-02-15T07:24:02.675Z,435
2023-02-15T07:26:02.953Z,448
2023-02-15T07:27:02.571Z,493
2023-02-15T07:28:02.581Z,456
2023-02-15T07:29:02.579Z,455
2023-02-15T07:31:02.780Z,482
2023-02-15T07:32:02.628Z,456
2023-02-15T07:33:04.955Z,460
2023-02-15T07:34:02.617Z,465
2023-02-15T07:36:03.091Z,445
2023-02-15T07:37:02.620Z,455
2023-02-15T07:38:02.624Z,455
2023-02-15T07:39:02.617Z,455
2023-02-15T07:41:02.826Z,470
2023-02-15T07:42:02.581Z,496
2023-02-15T07:43:02.625Z,487
2023-02-15T07:44:02.584Z,481
2023-02-15T07:46:03.082Z,506
2023-02-15T07:47:02.633Z,445
2023-02-15T07:48:02.594Z,445
2023-02-15T07:49:02.654Z,450
2023-02-15T07:51:02.761Z,446
2023-02-15T07:52:02.657Z,485
2023-02-15T07:53:02.626Z,491
2023-02-15T07:54:02.666Z,481
2023-02-15T07:56:03.081Z,481
2023-02-15T07:57:02.586Z,444
2023-02-15T07:58:02.628Z,435
2023-02-15T07:59:02.642Z,439
2023-02-15T08:01:02.848Z,435
2023-02-15T08:02:02.593Z,472
2023-02-15T08:03:02.663Z,472
2023-02-15T08:04:02.639Z,472
2023-02-15T08:06:03.149Z,472
2023-02-15T08:07:02.636Z,533
2023-02-15T08:08:02.638Z,533
2023-02-15T08:09:02.635Z,533
2023-02-15T08:11:02.776Z,533
2023-02-15T08:12:02.650Z,455
2023-02-15T08:13:02.649Z,455
2023-02-15T08:14:02.598Z,455
2023-02-15T08:16:03.115Z,455
2023-02-15T08:17:02.590Z,400
2023-02-15T08:18:02.597Z,403
2023-02-15T08:19:02.645Z,400
2023-02-15T08:21:02.774Z,427
2023-02-15T08:22:02.594Z,400
2023-02-15T08:23:02.660Z,400
2023-02-15T08:24:02.659Z,400
2023-02-15T08:26:03.062Z,400
2023-02-15T08:27:04.151Z,438
2023-02-15T08:28:02.669Z,438
2023-02-15T08:29:02.662Z,438
2023-02-15T08:31:03.202Z,443
2023-02-15T08:32:02.671Z,446
2023-02-15T08:33:02.658Z,447
2023-02-15T08:34:02.654Z,446
2023-02-15T08:36:02.814Z,446
2023-02-15T08:37:02.657Z,466
2023-02-15T08:38:02.607Z,466
2023-02-15T08:39:02.661Z,466
2023-02-15T08:41:03.078Z,466
2023-02-15T08:42:02.667Z,448
2023-02-15T08:43:02.667Z,448
2023-02-15T08:44:02.602Z,448
2023-02-15T08:46:02.853Z,448
2023-02-15T08:47:02.622Z,485
2023-02-15T08:48:02.653Z,485
2023-02-15T08:49:02.661Z,485
2023-02-15T08:51:03.069Z,485
2023-02-15T08:52:02.667Z,438
2023-02-15T08:53:02.672Z,438
2023-02-15T08:54:02.615Z,438
2023-02-15T08:56:02.880Z,438
2023-02-15T08:57:02.607Z,438
2023-02-15T08:58:02.688Z,438
2023-02-15T08:59:02.664Z,438
2023-02-15T09:01:03.147Z,438
2023-02-15T09:02:02.664Z,456
2023-02-15T09:03:02.615Z,456
2023-02-15T09:04:02.626Z,456
2023-02-15T09:06:02.826Z,456
2023-02-15T09:07:02.664Z,480
2023-02-15T09:08:02.671Z,480
2023-02-15T09:09:02.619Z,480
2023-02-15T09:11:03.159Z,480
2023-02-15T09:12:02.619Z,520
2023-02-15T09:13:02.665Z,520
2023-02-15T09:14:02.671Z,520
2023-02-15T09:16:02.798Z,520
2023-02-15T09:17:02.689Z,572
2023-02-15T09:18:02.668Z,572
2023-02-15T09:19:02.677Z,572
2023-02-15T09:21:03.048Z,572
2023-02-15T09:22:02.647Z,572
2023-02-15T09:23:02.617Z,572
2023-02-15T09:24:02.702Z,572
2023-02-15T09:26:02.898Z,572
2023-02-15T09:27:02.677Z,523
2023-02-15T09:28:02.626Z,523
2023-02-15T09:29:02.716Z,523
2023-02-15T09:31:03.154Z,523
2023-02-15T09:32:02.676Z,457
2023-02-15T09:33:02.672Z,457
2023-02-15T09:34:02.661Z,457
2023-02-15T09:36:02.810Z,457
2023-02-15T09:37:02.673Z,480
2023-02-15T09:38:02.668Z,480
2023-02-15T09:39:02.676Z,480
2023-02-15T09:41:03.044Z,480
2023-02-15T09:42:02.630Z,480
2023-02-15T09:43:02.707Z,480
2023-02-15T09:44:02.639Z,480
2023-02-15T09:46:02.873Z,480
2023-02-15T09:47:02.725Z,496
2023-02-15T09:48:02.674Z,496
2023-02-15T09:49:02.632Z,496
2023-02-15T09:51:03.052Z,496
2023-02-15T09:52:02.673Z,488
2023-02-15T09:53:02.641Z,488
2023-02-15T09:54:02.644Z,488
2023-02-15T09:56:02.818Z,488
2023-02-15T09:57:02.720Z,533
2023-02-15T09:58:02.690Z,533
2023-02-15T09:59:02.689Z,533
2023-02-15T10:01:03.127Z,533
2023-02-15T10:02:02.680Z,417
2023-02-15T10:03:03.226Z,417
2023-02-15T10:04:02.721Z,417
2023-02-15T10:06:02.822Z,417
2023-02-15T10:07:02.731Z,465
2023-02-15T10:08:02.691Z,466
2023-02-15T10:09:02.656Z,485
2023-02-15T10:11:03.122Z,457
2023-02-15T10:12:02.720Z,456
2023-02-15T10:13:02.729Z,456
2023-02-15T10:14:02.696Z,456
2023-02-15T10:16:02.853Z,456
2023-02-15T10:17:02.686Z,400
2023-02-15T10:18:02.733Z,400
2023-02-15T10:19:02.643Z,400
2023-02-15T10:21:03.138Z,400
2023-02-15T10:22:02.647Z,420
2023-02-15T10:23:02.744Z,420
2023-02-15T10:24:02.686Z,400
2023-02-15T10:26:03.164Z,400
2023-02-15T10:27:02.694Z,465
2023-02-15T10:28:02.707Z,420
2023-02-15T10:29:02.653Z,420
2023-02-15T10:31:03.097Z,420
2023-02-15T10:32:02.789Z,420
2023-02-15T10:33:02.661Z,487
2023-02-15T10:34:02.661Z,477
2023-02-15T10:36:02.831Z,524
2023-02-15T10:37:02.656Z,612
2023-02-15T10:38:02.662Z,505
2023-02-15T10:39:02.660Z,551
2023-02-15T10:41:03.085Z,470
2023-02-15T10:42:02.707Z,436
2023-02-15T10:43:02.711Z,491
2023-02-15T10:44:02.709Z,501
2023-02-15T10:46:02.913Z,436
2023-02-15T10:47:02.698Z,401
2023-02-15T10:48:02.745Z,400
2023-02-15T10:49:02.716Z,517
2023-02-15T10:51:03.033Z,477
2023-02-15T10:52:02.705Z,623
2023-02-15T10:53:02.670Z,614
2023-02-15T10:54:02.661Z,441
2023-02-15T10:56:02.857Z,617
2023-02-15T10:57:02.713Z,629
2023-02-15T10:58:02.663Z,459
2023-02-15T10:59:02.689Z,574
2023-02-15T11:01:03.130Z,614
2023-02-15T11:02:02.718Z,612
2023-02-15T11:03:02.666Z,476
2023-02-15T11:04:02.666Z,694
2023-02-15T11:06:02.850Z,500
2023-02-15T11:07:02.710Z,455
2023-02-15T11:08:02.668Z,614
2023-02-15T11:09:02.711Z,427
2023-02-15T11:11:03.271Z,466
2023-02-15T11:12:02.711Z,592
2023-02-15T11:13:02.674Z,462
2023-02-15T11:14:02.683Z,466
2023-02-15T11:16:02.931Z,450
2023-02-15T11:17:02.670Z,533
2023-02-15T11:18:02.718Z,443
2023-02-15T11:19:02.726Z,617
2023-02-15T11:21:03.185Z,454
2023-02-15T11:22:02.669Z,700
2023-02-15T11:23:02.739Z,462
2023-02-15T11:24:02.694Z,690
2023-02-15T11:26:02.853Z,447
2023-02-15T11:27:02.743Z,501
2023-02-15T11:28:02.681Z,674
2023-02-15T11:29:02.674Z,665
2023-02-15T11:31:03.236Z,679
2023-02-15T11:32:02.793Z,783
2023-02-15T11:33:02.694Z,660
2023-02-15T11:34:02.720Z,740
2023-02-15T11:36:02.873Z,719
2023-02-15T11:37:02.676Z,638
2023-02-15T11:38:02.733Z,827
2023-02-15T11:39:02.766Z,678
2023-02-15T11:41:03.155Z,1014
2023-02-15T11:42:02.685Z,821
2023-02-15T11:43:02.736Z,776
2023-02-15T11:44:02.733Z,930
2023-02-15T11:46:02.946Z,954
2023-02-15T11:47:02.685Z,832
2023-02-15T11:48:02.694Z,565
2023-02-15T11:49:02.757Z,810
2023-02-15T11:51:03.191Z,846
2023-02-15T11:52:02.680Z,872
2023-02-15T11:53:02.696Z,584
2023-02-15T11:54:02.684Z,530
2023-02-15T11:56:02.867Z,552
2023-02-15T11:57:02.685Z,920
2023-02-15T11:58:02.740Z,549
2023-02-15T11:59:02.744Z,740
2023-02-15T12:01:03.229Z,975
2023-02-15T12:02:02.728Z,1110
2023-02-15T12:03:02.715Z,1053
2023-02-15T12:04:02.740Z,1113
2023-02-15T12:06:02.889Z,902
2023-02-15T12:07:02.886Z,1102
2023-02-15T12:08:02.691Z,1248
2023-02-15T12:09:02.686Z,1077
2023-02-15T12:11:03.144Z,900
2023-02-15T12:12:02.741Z,951
2023-02-15T12:13:02.703Z,983
2023-02-15T12:14:02.712Z,565
2023-02-15T12:16:02.929Z,1144
2023-02-15T12:17:02.707Z,1065
2023-02-15T12:18:02.697Z,1385
2023-02-15T12:19:02.769Z,1014
2023-02-15T12:21:03.149Z,1565
2023-02-15T12:22:02.703Z,1224
2023-02-15T12:23:02.750Z,1207
2023-02-15T12:24:02.755Z,1792
2023-02-15T12:26:02.950Z,1792
2023-02-15T12:27:02.700Z,1840
2023-02-15T12:28:02.749Z,1900
2023-02-15T12:29:02.756Z,1978
2023-02-15T12:31:03.236Z,1242
2023-02-15T12:32:02.860Z,2024
2023-02-15T12:33:02.747Z,2152
2023-02-15T12:34:02.705Z,1521
2023-02-15T12:36:03.168Z,1425
2023-02-15T12:37:02.759Z,1830
2023-02-15T12:38:02.786Z,1768
2023-02-15T12:39:02.709Z,1231
2023-02-15T12:41:03.215Z,1307
2023-02-15T12:42:02.709Z,1255
2023-02-15T12:43:08.861Z,1156
2023-02-15T12:44:02.723Z,1137
2023-02-15T12:46:03.196Z,1669
2023-02-15T12:47:02.768Z,1860
2023-02-15T12:48:02.766Z,1270
2023-02-15T12:49:02.792Z,1944
2023-02-15T12:51:02.906Z,1544
2023-02-15T12:52:02.772Z,1711
2023-02-15T12:53:02.757Z,1955
2023-02-15T12:54:02.713Z,1487
2023-02-15T12:56:02.905Z,1978
2023-02-15T12:57:02.773Z,1944
2023-02-15T12:58:02.787Z,1380
2023-02-15T12:59:02.719Z,2234
2023-02-15T13:01:03.324Z,1735
2023-02-15T13:02:02.886Z,2012
2023-02-15T13:03:02.756Z,1458
2023-02-15T13:04:02.768Z,1376
2023-02-15T13:06:02.929Z,2152
2023-02-15T13:07:02.793Z,1735
2023-02-15T13:08:02.799Z,2725
2023-02-15T13:09:02.781Z,1673
2023-02-15T13:11:03.192Z,1650
2023-02-15T13:12:02.776Z,2560
2023-02-15T13:13:02.740Z,2696
2023-02-15T13:14:02.777Z,2234
2023-02-15T13:16:03.010Z,2182
2023-02-15T13:17:02.739Z,2696
2023-02-15T13:18:02.740Z,1754
2023-02-15T13:19:02.745Z,2640
2023-02-15T13:21:03.170Z,2560
2023-02-15T13:22:02.749Z,2929
2023-02-15T13:23:02.741Z,1820
2023-02-15T13:24:02.859Z,3167
2023-02-15T13:26:02.915Z,1872
2023-02-15T13:27:14.320Z,2214
2023-02-15T13:28:02.745Z,3443
2023-02-15T13:29:02.800Z,2285
2023-02-15T13:31:03.316Z,1548
2023-02-15T13:32:02.829Z,2318
2023-02-15T13:33:02.766Z,2035
2023-02-15T13:34:02.757Z,2996
2023-02-15T13:36:02.934Z,2072
2023-02-15T13:37:02.825Z,2962
2023-02-15T13:38:02.792Z,1978
2023-02-15T13:39:02.826Z,1850
2023-02-15T13:41:03.267Z,1702
2023-02-15T13:42:02.825Z,3158
2023-02-15T13:43:02.826Z,2096
2023-02-15T13:44:02.797Z,2704
2023-02-15T13:46:03.355Z,2618
2023-02-15T13:47:02.809Z,2084
2023-02-15T13:48:02.805Z,3113
2023-02-15T13:49:02.810Z,2551
2023-02-15T13:51:02.965Z,3140
2023-02-15T13:52:02.761Z,1717
2023-02-15T13:53:02.838Z,2632
2023-02-15T13:54:02.800Z,2611
2023-02-15T13:56:03.266Z,2937
2023-02-15T13:57:02.830Z,2096
2023-02-15T13:58:02.826Z,2300
2023-02-15T13:59:02.797Z,1597
2023-02-15T14:01:03.347Z,1513
2023-02-15T14:02:02.808Z,1933
2023-02-15T14:03:02.851Z,1608
2023-02-15T14:04:02.854Z,1973
2023-02-15T14:06:02.958Z,2116
2023-02-15T14:07:02.792Z,1429
2023-02-15T14:08:02.772Z,1798
2023-02-15T14:09:02.808Z,2272
2023-02-15T14:11:03.371Z,2666
2023-02-15T14:12:02.768Z,1973
2023-02-15T14:13:02.807Z,1815
2023-02-15T14:14:02.816Z,2921
2023-02-15T14:16:02.945Z,2116
2023-02-15T14:17:06.902Z,3104
2023-02-15T14:18:02.839Z,2300
2023-02-15T14:19:02.845Z,2666
2023-02-15T14:21:03.272Z,2760
2023-02-15T14:22:02.842Z,2530
2023-02-15T14:23:02.841Z,2461
2023-02-15T14:24:02.773Z,3545
2023-02-15T14:26:02.948Z,2888
2023-02-15T14:27:02.794Z,2501
2023-02-15T14:28:02.812Z,2823
2023-02-15T14:29:02.820Z,2618
2023-02-15T14:31:03.307Z,2618
2023-02-15T14:32:02.902Z,3287
2023-02-15T14:33:02.772Z,1978
2023-02-15T14:34:02.813Z,3057
2023-02-15T14:36:02.968Z,3092
2023-02-15T14:37:02.767Z,2134
2023-02-15T14:38:02.829Z,2954
2023-02-15T14:39:04.603Z,2888
2023-02-15T14:41:03.993Z,2749
2023-02-15T14:42:02.810Z,2710
2023-02-15T14:43:02.811Z,2530
2023-02-15T14:44:02.823Z,2110
2023-02-15T14:46:03.004Z,2768
2023-02-15T14:47:02.820Z,1855
2023-02-15T14:48:02.838Z,2598
2023-02-15T14:49:02.845Z,2725
2023-02-15T14:51:03.242Z,2092
2023-02-15T14:52:02.782Z,1990
2023-02-15T14:53:02.772Z,1544
2023-02-15T14:54:02.790Z,2452
2023-02-15T14:56:02.975Z,1706
2023-02-15T14:57:02.799Z,2421
2023-02-15T14:58:02.804Z,2388
2023-02-15T14:59:02.779Z,2438
2023-02-15T15:01:03.384Z,1521
2023-02-15T15:02:02.832Z,2438
2023-02-15T15:03:02.794Z,1773
2023-02-15T15:04:02.836Z,1436
2023-02-15T15:06:05.281Z,1773
2023-02-15T15:07:02.855Z,2226
2023-02-15T15:08:02.837Z,2158
2023-02-15T15:09:02.788Z,3343
2023-02-15T15:11:02.968Z,2220
2023-02-15T15:12:02.779Z,2598
2023-02-15T15:13:02.798Z,2537
2023-02-15T15:14:02.841Z,2480
2023-02-15T15:16:03.177Z,2311
2023-02-15T15:17:02.911Z,1590
2023-02-15T15:18:02.845Z,2285
2023-02-15T15:19:03.744Z,1574
2023-02-15T15:21:03.067Z,2024
2023-02-15T15:22:02.851Z,1525
2023-02-15T15:23:02.792Z,1525
2023-02-15T15:24:02.883Z,1890
2023-02-15T15:26:03.143Z,1201
2023-02-15T15:27:02.877Z,1081
2023-02-15T15:28:02.876Z,1029
2023-02-15T15:29:02.872Z,1950
2023-02-15T15:31:03.117Z,851
2023-02-15T15:32:02.901Z,1274
2023-02-15T15:33:02.798Z,1099
2023-02-15T15:34:02.844Z,1168
2023-02-15T15:36:03.336Z,1001
2023-02-15T15:37:02.799Z,830
2023-02-15T15:38:02.815Z,830
2023-02-15T15:39:02.799Z,880
2023-02-15T15:41:02.993Z,830
2023-02-15T15:42:02.850Z,795
2023-02-15T15:43:02.805Z,795
2023-02-15T15:44:02.842Z,795
2023-02-15T15:46:03.327Z,795
2023-02-15T15:47:02.862Z,915
2023-02-15T15:48:07.223Z,915
2023-02-15T15:49:02.801Z,915
2023-02-15T15:51:02.999Z,915
2023-02-15T15:52:02.811Z,897
2023-02-15T15:53:02.843Z,897
2023-02-15T15:54:02.853Z,897
2023-02-15T15:56:03.246Z,897
2023-02-15T15:57:02.859Z,880
2023-02-15T15:58:02.861Z,880
2023-02-15T15:59:02.809Z,880
2023-02-15T16:01:03.056Z,880
2023-02-15T16:02:02.940Z,940
2023-02-15T16:03:02.910Z,940
2023-02-15T16:04:02.866Z,940
2023-02-15T16:06:03.359Z,940
2023-02-15T16:07:02.854Z,940